createdAt,value
2017-10-28T00:01:47.164Z,8.47
2017-10-28T00:04:12.928Z,8.52
2017-10-28T00:06:38.676Z,8.58
2017-10-28T00:09:04.451Z,8.55
2017-10-28T00:11:30.199Z,8.53
2017-10-28T00:13:55.964Z,8.38
2017-10-28T00:16:21.756Z,8.23
2017-10-28T00:18:47.506Z,8.19
2017-10-28T00:21:13.238Z,8.08
2017-10-28T00:23:39.008Z,8.01
2017-10-28T00:26:04.764Z,7.96
2017-10-28T00:28:30.540Z,8.00
2017-10-28T00:31:02.266Z,7.90
2017-10-28T00:33:34.043Z,7.64
2017-10-28T00:36:05.901Z,7.75
2017-10-28T00:38:31.671Z,7.86
2017-10-28T00:40:57.462Z,7.90
2017-10-28T00:43:23.234Z,7.88
2017-10-28T00:45:49.017Z,8.01
2017-10-28T00:48:14.794Z,7.97
2017-10-28T00:50:40.579Z,7.93
2017-10-28T00:53:06.319Z,7.91
2017-10-28T00:55:32.089Z,7.92
2017-10-28T00:57:57.843Z,7.96
2017-10-28T01:00:23.585Z,7.98
2017-10-28T01:02:49.359Z,8.05
2017-10-28T01:05:15.121Z,8.10
2017-10-28T01:07:40.890Z,8.03
2017-10-28T01:10:06.644Z,7.97
2017-10-28T01:12:32.405Z,8.02
2017-10-28T01:14:58.160Z,8.03
2017-10-28T01:17:23.915Z,7.95
2017-10-28T01:19:49.689Z,7.85
2017-10-28T01:22:15.444Z,7.80
2017-10-28T01:24:41.215Z,7.81
2017-10-28T01:27:06.971Z,7.85
2017-10-28T01:29:32.741Z,7.90
2017-10-28T01:31:58.511Z,7.94
2017-10-28T01:34:24.275Z,7.99
2017-10-28T01:36:50.036Z,7.96
2017-10-28T01:39:15.807Z,7.99
2017-10-28T01:41:41.556Z,7.97
2017-10-28T01:44:07.326Z,7.95
2017-10-28T01:46:33.104Z,7.95
2017-10-28T01:48:58.852Z,7.96
2017-10-28T01:51:24.627Z,8.05
2017-10-28T01:53:50.375Z,8.13
2017-10-28T01:56:16.123Z,8.13
2017-10-28T01:58:41.893Z,8.19
2017-10-28T02:01:07.639Z,8.16
2017-10-28T02:03:33.384Z,8.11
2017-10-28T02:05:59.147Z,8.09
2017-10-28T02:08:24.923Z,8.08
2017-10-28T02:10:50.674Z,8.09
2017-10-28T02:13:16.417Z,8.09
2017-10-28T02:15:42.216Z,8.11
2017-10-28T02:18:07.957Z,8.21
2017-10-28T02:20:33.766Z,8.18
2017-10-28T02:22:59.506Z,8.20
2017-10-28T02:25:25.263Z,8.23
2017-10-28T02:27:51.067Z,8.22
2017-10-28T02:30:16.807Z,8.20
2017-10-28T02:32:42.567Z,8.28
2017-10-28T02:35:08.327Z,8.28
2017-10-28T02:37:34.075Z,8.26
2017-10-28T02:39:59.820Z,8.25
2017-10-28T02:42:25.587Z,8.33
2017-10-28T02:44:51.329Z,8.35
2017-10-28T02:47:17.095Z,8.39
2017-10-28T02:49:42.843Z,8.38
2017-10-28T02:52:08.643Z,8.28
2017-10-28T02:54:34.412Z,8.28
2017-10-28T02:57:00.161Z,8.31
2017-10-28T02:59:25.919Z,8.35
2017-10-28T03:01:51.715Z,8.41
2017-10-28T03:04:17.482Z,8.51
2017-10-28T03:06:43.231Z,8.55
2017-10-28T03:09:09.035Z,8.61
2017-10-28T03:11:34.806Z,8.64
2017-10-28T03:14:00.575Z,8.73
2017-10-28T03:16:26.353Z,8.65
2017-10-28T03:18:52.119Z,8.63
2017-10-28T03:21:17.947Z,8.59
2017-10-28T03:23:43.691Z,8.64
2017-10-28T03:26:10.428Z,8.60
2017-10-28T03:28:36.193Z,8.62
2017-10-28T03:31:01.951Z,8.64
2017-10-28T03:33:27.770Z,8.62
2017-10-28T03:35:53.530Z,8.71
2017-10-28T03:38:20.436Z,8.65
2017-10-28T03:40:46.207Z,8.67
2017-10-28T03:43:11.964Z,8.63
2017-10-28T03:45:37.723Z,8.62
2017-10-28T03:48:03.475Z,8.55
2017-10-28T03:50:29.244Z,8.48
2017-10-28T03:52:54.995Z,8.42
2017-10-28T03:55:20.752Z,8.27
2017-10-28T03:57:46.506Z,8.17
2017-10-28T04:00:12.283Z,8.09
2017-10-28T04:02:38.067Z,8.03
2017-10-28T04:05:03.835Z,8.02
2017-10-28T04:07:29.603Z,7.88
2017-10-28T04:09:55.354Z,7.77
2017-10-28T04:12:21.115Z,7.74
2017-10-28T04:14:46.855Z,7.57
2017-10-28T04:17:12.619Z,7.41
2017-10-28T04:19:38.368Z,7.32
2017-10-28T04:22:04.139Z,7.25
2017-10-28T04:24:29.894Z,7.29
2017-10-28T04:26:55.647Z,7.33
2017-10-28T04:29:21.422Z,7.31
2017-10-28T04:31:47.180Z,7.29
2017-10-28T04:34:12.924Z,7.19
2017-10-28T04:36:38.699Z,7.18
2017-10-28T04:39:04.536Z,7.10
2017-10-28T04:41:30.322Z,7.12
2017-10-28T04:43:56.476Z,7.14
2017-10-28T04:46:22.250Z,7.14
2017-10-28T04:48:48.047Z,7.15
2017-10-28T04:51:13.828Z,7.20
2017-10-28T04:53:39.596Z,7.16
2017-10-28T04:56:05.367Z,7.13
2017-10-28T04:58:31.120Z,7.10
2017-10-28T05:00:56.892Z,7.10
2017-10-28T05:03:22.665Z,7.15
2017-10-28T05:05:48.435Z,7.25
2017-10-28T05:08:14.194Z,7.34
2017-10-28T05:10:39.960Z,7.12
2017-10-28T05:13:05.744Z,7.04
2017-10-28T05:15:31.567Z,6.99
2017-10-28T05:17:57.319Z,6.99
2017-10-28T05:20:23.094Z,7.00
2017-10-28T05:22:48.860Z,6.95
2017-10-28T05:25:14.648Z,6.97
2017-10-28T05:27:40.418Z,7.04
2017-10-28T05:30:06.163Z,7.04
2017-10-28T05:32:31.967Z,7.10
2017-10-28T05:34:57.702Z,7.10
2017-10-28T05:37:23.446Z,7.04
2017-10-28T05:39:49.204Z,7.04
2017-10-28T05:42:14.979Z,7.04
2017-10-28T05:44:40.752Z,7.03
2017-10-28T05:47:06.530Z,7.12
2017-10-28T05:49:32.288Z,7.07
2017-10-28T05:51:58.098Z,7.15
2017-10-28T05:54:23.855Z,7.13
2017-10-28T05:56:49.647Z,7.16
2017-10-28T05:59:15.415Z,7.18
2017-10-28T06:01:41.186Z,7.22
2017-10-28T06:04:06.974Z,7.26
2017-10-28T06:06:32.735Z,7.21
2017-10-28T06:08:58.511Z,7.20
2017-10-28T06:11:24.267Z,7.22
2017-10-28T06:13:50.020Z,7.24
2017-10-28T06:16:15.795Z,7.29
2017-10-28T06:18:41.544Z,7.31
2017-10-28T06:21:07.312Z,7.32
2017-10-28T06:23:33.063Z,7.39
2017-10-28T06:25:58.821Z,7.40
2017-10-28T06:28:24.565Z,7.37
2017-10-28T06:30:50.336Z,7.37
2017-10-28T06:33:16.131Z,7.44
2017-10-28T06:35:41.879Z,7.46
2017-10-28T06:38:07.660Z,7.51
2017-10-28T06:40:33.416Z,7.51
2017-10-28T06:42:59.170Z,7.58
2017-10-28T06:45:24.939Z,7.59
2017-10-28T06:47:50.695Z,7.65
2017-10-28T06:50:16.472Z,7.72
2017-10-28T06:52:42.228Z,7.77
2017-10-28T06:55:07.999Z,7.81
2017-10-28T06:57:33.747Z,7.86
2017-10-28T06:59:59.843Z,7.89
2017-10-28T07:02:25.599Z,7.91
2017-10-28T07:04:51.357Z,7.92
2017-10-28T07:07:17.122Z,7.93
2017-10-28T07:09:42.887Z,7.94
2017-10-28T07:12:08.682Z,7.95
2017-10-28T07:14:34.454Z,8.03
2017-10-28T07:17:00.232Z,8.07
2017-10-28T07:19:26.007Z,8.12
2017-10-28T07:21:51.790Z,8.14
2017-10-28T07:24:17.579Z,8.13
2017-10-28T07:26:43.378Z,8.19
2017-10-28T07:29:09.161Z,8.13
2017-10-28T07:31:34.904Z,8.06
2017-10-28T07:34:00.662Z,8.07
2017-10-28T07:36:26.431Z,8.06
2017-10-28T07:38:52.175Z,8.09
2017-10-28T07:41:18.062Z,8.15
2017-10-28T07:43:43.874Z,8.28
2017-10-28T07:46:09.679Z,8.42
2017-10-28T07:48:35.431Z,8.80
2017-10-28T07:51:01.170Z,9.05
2017-10-28T07:53:26.923Z,9.03
2017-10-28T07:55:52.691Z,8.92
2017-10-28T07:58:18.443Z,9.42
2017-10-28T08:00:44.227Z,10.44
2017-10-28T08:03:10.054Z,11.36
2017-10-28T08:05:35.815Z,11.76
2017-10-28T08:08:01.579Z,11.93
2017-10-28T08:10:27.330Z,12.25
2017-10-28T08:12:53.094Z,12.55
2017-10-28T08:15:18.836Z,12.49
2017-10-28T08:17:44.607Z,12.34
2017-10-28T08:20:10.356Z,12.01
2017-10-28T08:22:36.132Z,12.01
2017-10-28T08:25:01.891Z,11.96
2017-10-28T08:27:27.663Z,11.83
2017-10-28T08:29:53.404Z,11.62
2017-10-28T08:32:19.174Z,11.44
2017-10-28T08:34:44.931Z,11.23
2017-10-28T08:37:10.675Z,11.04
2017-10-28T08:39:36.447Z,11.02
2017-10-28T08:42:02.198Z,10.70
2017-10-28T08:44:27.962Z,10.54
2017-10-28T08:46:53.749Z,10.37
2017-10-28T08:49:19.515Z,10.42
2017-10-28T08:51:45.250Z,10.50
2017-10-28T08:54:11.011Z,10.52
2017-10-28T08:56:36.757Z,10.41
2017-10-28T08:59:02.549Z,10.39
2017-10-28T09:01:28.338Z,10.24
2017-10-28T09:03:54.083Z,10.31
2017-10-28T09:06:19.829Z,10.43
2017-10-28T09:08:45.587Z,10.27
2017-10-28T09:11:11.364Z,10.33
2017-10-28T09:13:37.106Z,10.43
2017-10-28T09:16:02.895Z,10.39
2017-10-28T09:18:28.686Z,10.30
2017-10-28T09:20:54.456Z,10.39
2017-10-28T09:23:20.204Z,10.58
2017-10-28T09:25:45.939Z,10.78
2017-10-28T09:28:11.707Z,10.77
2017-10-28T09:30:37.482Z,10.98
2017-10-28T09:33:03.227Z,11.06
2017-10-28T09:35:29.047Z,11.01
2017-10-28T09:37:54.831Z,11.06
2017-10-28T09:40:20.571Z,10.91
2017-10-28T09:42:46.368Z,10.75
2017-10-28T09:45:12.137Z,10.61
2017-10-28T09:47:37.883Z,10.50
2017-10-28T09:50:03.647Z,10.55
2017-10-28T09:52:29.395Z,10.62
2017-10-28T09:54:55.159Z,10.58
2017-10-28T09:57:20.925Z,11.01
2017-10-28T09:59:46.671Z,11.75
2017-10-28T10:02:12.431Z,11.92
2017-10-28T10:04:38.189Z,11.98
2017-10-28T10:07:03.971Z,12.09
2017-10-28T10:09:29.739Z,12.03
2017-10-28T10:11:55.492Z,11.70
2017-10-28T10:14:21.254Z,11.52
2017-10-28T10:16:47.016Z,11.39
2017-10-28T10:19:12.747Z,11.13
2017-10-28T10:21:38.533Z,11.00
2017-10-28T10:24:04.283Z,10.90
2017-10-28T10:26:30.118Z,10.87
2017-10-28T10:28:55.895Z,11.27
2017-10-28T10:31:21.691Z,11.59
2017-10-28T10:33:47.470Z,11.78
2017-10-28T10:36:13.227Z,11.67
2017-10-28T10:38:38.972Z,11.64
2017-10-28T10:41:04.749Z,11.57
2017-10-28T10:43:30.497Z,11.38
2017-10-28T10:45:56.263Z,11.35
2017-10-28T10:48:22.035Z,11.26
2017-10-28T10:50:47.781Z,11.24
2017-10-28T10:53:13.535Z,11.22
2017-10-28T10:55:39.355Z,11.30
2017-10-28T10:58:05.095Z,11.20
2017-10-28T11:00:30.917Z,11.57
2017-10-28T11:02:56.679Z,11.40
2017-10-28T11:05:22.442Z,11.14
2017-10-28T11:07:48.236Z,11.21
2017-10-28T11:10:13.995Z,11.32
2017-10-28T11:12:39.758Z,11.36
2017-10-28T11:15:05.496Z,11.13
2017-10-28T11:17:31.272Z,10.79
2017-10-28T11:19:57.013Z,10.92
2017-10-28T11:22:22.787Z,10.98
2017-10-28T11:24:48.551Z,10.81
2017-10-28T11:27:14.315Z,10.66
2017-10-28T11:29:40.067Z,10.59
2017-10-28T11:32:05.795Z,10.55
2017-10-28T11:34:31.574Z,10.62
2017-10-28T11:36:57.351Z,10.70
2017-10-28T11:39:23.151Z,10.63
2017-10-28T11:41:48.900Z,10.68
2017-10-28T11:44:14.677Z,10.56
2017-10-28T11:46:40.447Z,10.55
2017-10-28T11:49:06.202Z,10.48
2017-10-28T11:51:31.955Z,10.52
2017-10-28T11:53:57.693Z,10.43
2017-10-28T11:56:24.382Z,10.31
2017-10-28T11:58:50.144Z,10.29
2017-10-28T12:01:15.924Z,10.37
2017-10-28T12:03:41.671Z,10.36
2017-10-28T12:06:07.403Z,10.42
2017-10-28T12:08:33.183Z,10.46
2017-10-28T12:10:58.927Z,10.23
2017-10-28T12:13:24.693Z,10.35
2017-10-28T12:15:50.462Z,10.40
2017-10-28T12:18:16.202Z,10.47
2017-10-28T12:20:41.976Z,10.38
2017-10-28T12:23:07.730Z,10.21
2017-10-28T12:25:33.463Z,10.12
2017-10-28T12:27:59.242Z,10.11
2017-10-28T12:30:25.003Z,10.14
2017-10-28T12:32:50.766Z,10.03
2017-10-28T12:35:16.524Z,9.91
2017-10-28T12:37:42.291Z,9.95
2017-10-28T12:40:08.068Z,9.99
2017-10-28T12:42:33.819Z,10.01
2017-10-28T12:44:59.575Z,10.05
2017-10-28T12:47:25.332Z,10.14
2017-10-28T12:49:51.107Z,10.33
2017-10-28T12:52:16.857Z,10.40
2017-10-28T12:54:42.631Z,10.40
2017-10-28T12:57:08.392Z,10.35
2017-10-28T12:59:34.171Z,10.15
2017-10-28T13:01:59.937Z,10.05
2017-10-28T13:04:25.695Z,10.04
2017-10-28T13:06:51.440Z,10.00
2017-10-28T13:09:17.198Z,9.98
2017-10-28T13:11:42.988Z,10.02
2017-10-28T13:14:08.727Z,9.96
2017-10-28T13:16:34.475Z,9.96
2017-10-28T13:19:00.267Z,9.94
2017-10-28T13:21:26.032Z,10.01
2017-10-28T13:23:51.783Z,9.92
2017-10-28T13:26:17.552Z,9.98
2017-10-28T13:28:43.317Z,10.12
2017-10-28T13:31:09.223Z,10.12
2017-10-28T13:33:34.984Z,9.98
2017-10-28T13:36:00.848Z,9.93
2017-10-28T13:38:26.805Z,9.91
2017-10-28T13:40:52.587Z,9.92
2017-10-28T13:43:18.448Z,9.78
2017-10-28T13:45:44.221Z,9.74
2017-10-28T13:48:09.971Z,9.68
2017-10-28T13:50:35.743Z,9.67
2017-10-28T13:53:01.947Z,9.65
2017-10-28T13:55:28.184Z,9.71
2017-10-28T13:57:54.557Z,9.68
2017-10-28T14:00:20.299Z,9.59
2017-10-28T14:02:46.050Z,9.66
2017-10-28T14:05:11.810Z,9.67
2017-10-28T14:07:37.547Z,9.70
2017-10-28T14:10:03.335Z,9.67
2017-10-28T14:12:29.137Z,9.61
2017-10-28T14:14:55.824Z,9.51
2017-10-28T14:17:21.587Z,9.44
2017-10-28T14:19:47.435Z,9.44
2017-10-28T14:22:13.203Z,9.41
2017-10-28T14:24:38.999Z,9.41
2017-10-28T14:27:04.831Z,9.42
2017-10-28T14:29:30.643Z,9.37
2017-10-28T14:31:56.454Z,9.45
2017-10-28T14:34:22.215Z,9.46
2017-10-28T14:36:47.984Z,9.35
2017-10-28T14:39:13.743Z,9.31
2017-10-28T14:41:39.540Z,9.28
2017-10-28T14:44:05.312Z,9.30
2017-10-28T14:46:31.080Z,9.34
2017-10-28T14:48:56.854Z,9.31
2017-10-28T14:51:22.605Z,9.36
2017-10-28T14:53:48.380Z,9.42
2017-10-28T14:56:14.125Z,9.37
2017-10-28T14:58:39.861Z,9.35
2017-10-28T15:01:05.616Z,9.43
2017-10-28T15:03:31.367Z,9.42
2017-10-28T15:05:57.157Z,9.45
2017-10-28T15:08:22.946Z,9.51
2017-10-28T15:10:48.744Z,9.58
2017-10-28T15:13:14.508Z,9.57
2017-10-28T15:15:40.249Z,9.67
2017-10-28T15:18:06.011Z,9.69
2017-10-28T15:20:31.791Z,9.68
2017-10-28T15:22:57.559Z,9.63
2017-10-28T15:25:23.311Z,9.64
2017-10-28T15:27:49.075Z,9.57
2017-10-28T15:30:14.874Z,9.59
2017-10-28T15:32:40.655Z,9.53
2017-10-28T15:35:06.411Z,9.51
2017-10-28T15:37:32.160Z,9.44
2017-10-28T15:39:57.934Z,9.41
2017-10-28T15:42:23.707Z,9.37
2017-10-28T15:44:49.492Z,9.38
2017-10-28T15:47:15.265Z,9.37
2017-10-28T15:49:41.054Z,9.38
2017-10-28T15:52:06.881Z,9.39
2017-10-28T15:54:32.623Z,9.36
2017-10-28T15:56:58.384Z,9.35
2017-10-28T15:59:24.159Z,9.30
2017-10-28T16:01:49.909Z,9.30
2017-10-28T16:04:15.684Z,9.33
2017-10-28T16:06:41.439Z,9.33
2017-10-28T16:09:07.260Z,9.31
2017-10-28T16:11:33.039Z,9.32
2017-10-28T16:13:58.805Z,9.32
2017-10-28T16:16:24.546Z,9.28
2017-10-28T16:18:50.300Z,9.33
2017-10-28T16:21:16.062Z,9.31
2017-10-28T16:23:42.209Z,9.32
2017-10-28T16:26:07.967Z,9.39
2017-10-28T16:28:33.723Z,9.40
2017-10-28T16:30:59.492Z,9.39
2017-10-28T16:33:25.253Z,9.34
2017-10-28T16:35:51.020Z,9.35
2017-10-28T16:38:16.788Z,9.35
2017-10-28T16:40:42.562Z,9.32
2017-10-28T16:43:08.327Z,9.33
2017-10-28T16:45:34.091Z,9.36
2017-10-28T16:47:59.855Z,9.38
2017-10-28T16:50:25.599Z,9.37
2017-10-28T16:52:51.387Z,9.37
2017-10-28T16:55:17.131Z,9.36
2017-10-28T16:57:42.956Z,9.37
2017-10-28T17:00:08.715Z,9.36
2017-10-28T17:02:34.464Z,9.35
2017-10-28T17:05:00.294Z,9.42
2017-10-28T17:07:26.055Z,9.41
2017-10-28T17:09:51.819Z,9.43
2017-10-28T17:12:17.579Z,9.45
2017-10-28T17:14:43.349Z,9.46
2017-10-28T17:17:09.104Z,9.44
2017-10-28T17:19:34.847Z,9.46
2017-10-28T17:22:00.620Z,9.46
2017-10-28T17:24:26.467Z,9.49
2017-10-28T17:26:52.318Z,9.49
2017-10-28T17:29:18.090Z,9.54
2017-10-28T17:31:43.850Z,9.54
2017-10-28T17:34:09.613Z,9.56
2017-10-28T17:36:35.371Z,9.54
2017-10-28T17:39:01.163Z,9.56
2017-10-28T17:41:26.907Z,9.62
2017-10-28T17:43:52.662Z,9.65
2017-10-28T17:46:18.432Z,9.66
2017-10-28T17:48:44.185Z,9.69
2017-10-28T17:51:09.931Z,9.71
2017-10-28T17:53:35.710Z,9.73
2017-10-28T17:56:01.455Z,9.75
2017-10-28T17:58:27.203Z,9.73
2017-10-28T18:00:52.972Z,9.70
2017-10-28T18:03:18.744Z,9.71
2017-10-28T18:05:44.525Z,9.72
2017-10-28T18:08:10.329Z,9.71
2017-10-28T18:10:36.094Z,9.71
2017-10-28T18:13:01.841Z,9.70
2017-10-28T18:15:27.624Z,9.72
2017-10-28T18:17:53.375Z,9.67
2017-10-28T18:20:19.112Z,9.60
2017-10-28T18:22:44.880Z,9.61
2017-10-28T18:25:10.643Z,9.63
2017-10-28T18:27:36.394Z,9.62
2017-10-28T18:30:02.182Z,9.60
2017-10-28T18:32:27.935Z,9.60
2017-10-28T18:34:53.695Z,9.57
2017-10-28T18:37:19.460Z,9.54
2017-10-28T18:39:45.224Z,9.53
2017-10-28T18:42:10.975Z,9.60
2017-10-28T18:44:36.765Z,9.58
2017-10-28T18:47:02.511Z,9.54
2017-10-28T18:49:28.252Z,9.56
2017-10-28T18:51:54.027Z,9.56
2017-10-28T18:54:19.798Z,9.56
2017-10-28T18:56:45.559Z,9.60
2017-10-28T18:59:11.343Z,9.60
2017-10-28T19:01:37.100Z,9.59
2017-10-28T19:04:02.867Z,9.62
2017-10-28T19:06:28.631Z,9.57
2017-10-28T19:08:54.390Z,9.57
2017-10-28T19:11:20.164Z,9.53
2017-10-28T19:13:45.905Z,9.54
2017-10-28T19:16:11.672Z,9.53
2017-10-28T19:18:37.442Z,9.54
2017-10-28T19:21:03.227Z,9.55
2017-10-28T19:23:28.976Z,9.55
2017-10-28T19:25:54.724Z,9.54
2017-10-28T19:28:20.494Z,9.55
2017-10-28T19:30:46.272Z,9.57
2017-10-28T19:33:12.015Z,9.59
2017-10-28T19:35:37.793Z,9.60
2017-10-28T19:38:03.552Z,9.61
2017-10-28T19:40:29.323Z,9.62
2017-10-28T19:42:55.062Z,9.60
2017-10-28T19:45:20.846Z,9.61
2017-10-28T19:47:46.610Z,9.61
2017-10-28T19:50:12.354Z,9.66
2017-10-28T19:52:38.323Z,9.59
2017-10-28T19:55:04.097Z,9.61
2017-10-28T19:57:29.936Z,9.64
2017-10-28T19:59:55.687Z,9.63
2017-10-28T20:02:21.427Z,9.64
2017-10-28T20:04:47.201Z,9.70
2017-10-28T20:07:12.972Z,9.64
2017-10-28T20:09:38.811Z,9.69
2017-10-28T20:12:04.527Z,9.71
2017-10-28T20:14:30.275Z,9.72
2017-10-28T20:16:56.061Z,9.74
2017-10-28T20:19:21.799Z,9.75
2017-10-28T20:21:47.605Z,9.73
2017-10-28T20:24:13.375Z,9.76
2017-10-28T20:26:39.128Z,9.71
2017-10-28T20:29:04.904Z,9.71
2017-10-28T20:31:30.665Z,9.73
2017-10-28T20:33:56.414Z,9.74
2017-10-28T20:36:22.167Z,9.80
2017-10-28T20:38:47.939Z,9.79
2017-10-28T20:41:13.703Z,9.82
2017-10-28T20:43:39.474Z,9.82
2017-10-28T20:46:05.221Z,9.85
2017-10-28T20:48:30.990Z,9.85
2017-10-28T20:50:56.751Z,9.87
2017-10-28T20:53:22.494Z,9.88
2017-10-28T20:55:48.240Z,9.90
2017-10-28T20:58:14.003Z,9.92
2017-10-28T21:00:39.759Z,9.90
2017-10-28T21:03:05.520Z,9.92
2017-10-28T21:05:31.280Z,9.90
2017-10-28T21:07:57.065Z,9.86
2017-10-28T21:10:22.839Z,9.82
2017-10-28T21:12:48.591Z,9.83
2017-10-28T21:15:14.383Z,9.85
2017-10-28T21:17:40.163Z,9.83
2017-10-28T21:20:05.907Z,9.75
2017-10-28T21:22:31.711Z,9.78
2017-10-28T21:24:57.484Z,9.78
2017-10-28T21:27:23.271Z,9.81
2017-10-28T21:29:49.021Z,9.77
2017-10-28T21:32:14.791Z,9.74
2017-10-28T21:34:40.558Z,9.76
2017-10-28T21:37:06.291Z,9.77
2017-10-28T21:39:32.070Z,9.73
2017-10-28T21:41:57.811Z,9.72
2017-10-28T21:44:23.585Z,9.71
2017-10-28T21:46:49.332Z,9.74
2017-10-28T21:49:15.112Z,9.77
2017-10-28T21:51:40.851Z,9.76
2017-10-28T21:54:06.596Z,9.77
2017-10-28T21:56:32.365Z,9.76
2017-10-28T21:58:58.126Z,9.75
2017-10-28T22:01:23.948Z,9.75
2017-10-28T22:03:49.704Z,9.77
2017-10-28T22:06:15.470Z,9.76
2017-10-28T22:08:41.228Z,9.75
2017-10-28T22:11:07.015Z,9.78
2017-10-28T22:13:32.763Z,9.78
2017-10-28T22:15:58.515Z,9.78
2017-10-28T22:18:24.283Z,9.78
2017-10-28T22:20:50.024Z,9.76
2017-10-28T22:23:15.803Z,9.77
2017-10-28T22:25:41.599Z,9.76
2017-10-28T22:28:07.346Z,9.76
2017-10-28T22:30:33.108Z,9.74
2017-10-28T22:32:58.849Z,9.76
2017-10-28T22:35:24.631Z,9.80
2017-10-28T22:37:50.411Z,9.81
2017-10-28T22:40:16.162Z,9.78
2017-10-28T22:42:41.913Z,9.77
2017-10-28T22:45:07.719Z,9.79
2017-10-28T22:47:33.489Z,9.78
2017-10-28T22:49:59.234Z,9.84
2017-10-28T22:52:25.039Z,9.80
2017-10-28T22:54:50.785Z,9.83
2017-10-28T22:57:16.547Z,9.84
2017-10-28T22:59:42.311Z,9.81
2017-10-28T23:02:08.081Z,9.80
2017-10-28T23:04:33.837Z,9.76
2017-10-28T23:06:59.591Z,9.71
2017-10-28T23:09:25.339Z,9.70
2017-10-28T23:11:51.945Z,9.72
2017-10-28T23:14:17.703Z,9.68
2017-10-28T23:16:43.471Z,9.71
2017-10-28T23:19:09.224Z,9.74
2017-10-28T23:21:35.011Z,9.70
2017-10-28T23:24:00.796Z,9.69
2017-10-28T23:26:26.547Z,9.71
2017-10-28T23:28:52.315Z,9.67
2017-10-28T23:31:18.072Z,9.68
2017-10-28T23:33:43.827Z,9.67
2017-10-28T23:36:09.591Z,9.64
2017-10-28T23:38:35.344Z,9.64
2017-10-28T23:41:01.115Z,9.63
2017-10-28T23:43:26.886Z,9.69
2017-10-28T23:45:52.687Z,9.68
2017-10-28T23:48:18.442Z,9.68
2017-10-28T23:50:44.198Z,9.68
2017-10-28T23:53:09.959Z,9.65
2017-10-28T23:55:35.713Z,9.62
2017-10-28T23:58:01.491Z,9.60
